Time,TemperatureF,DewpointF,PressureIn,WindDirection,WindDirectionDegrees,WindSpeedMPH,WindSpeedGustMPH,Humidity,HourlyPrecipIn,Conditions,Clouds,dailyrainin,SoftwareType,DateUTC
2015-08-02 00:03:00,74.0,48.0,-100.00,ESE,121,12.0,17.0,40,-99.99,,,-99.99,,2015-08-02 07:03:00,
2015-08-02 00:12:00,75.0,48.0,-100.00,ESE,112,6.0,8.0,38,-99.99,,,-99.99,,2015-08-02 07:12:00,
2015-08-02 00:23:00,74.0,47.0,-100.00,SE,133,8.0,15.0,39,-99.99,,,-99.99,,2015-08-02 07:23:00,
2015-08-02 00:33:00,74.0,47.0,-100.00,SE,133,8.0,15.0,39,-99.99,,,-99.99,,2015-08-02 07:33:00,
2015-08-02 00:44:00,73.0,49.0,-100.00,ESE,106,8.0,10.0,42,-99.99,,,-99.99,,2015-08-02 07:44:00,
2015-08-02 00:53:00,71.0,50.0,-100.00,ESE,112,12.0,17.0,47,-99.99,,,-99.99,,2015-08-02 07:53:00,
2015-08-02 01:03:00,71.0,50.0,-100.00,ESE,103,8.0,11.0,47,-99.99,,,-99.99,,2015-08-02 08:03:00,
2015-08-02 01:12:00,71.0,50.0,-100.00,ESE,103,8.0,11.0,47,-99.99,,,-99.99,,2015-08-02 08:12:00,
2015-08-02 01:22:00,71.0,50.0,-100.00,ESE,113,9.0,-999.0,47,-99.99,,,-99.99,,2015-08-02 08:22:00,
2015-08-02 01:33:00,72.0,49.0,-100.00,SE,130,12.0,17.0,45,-99.99,,,-99.99,,2015-08-02 08:33:00,
2015-08-02 01:43:00,72.0,49.0,-100.00,SE,130,12.0,17.0,45,-99.99,,,-99.99,,2015-08-02 08:43:00,
2015-08-02 01:53:00,72.0,49.0,-100.00,SE,136,10.0,14.0,45,-99.99,,,-99.99,,2015-08-02 08:53:00,
2015-08-02 02:02:00,72.0,49.0,-100.00,ESE,120,8.0,11.0,45,-99.99,,,-99.99,,2015-08-02 09:02:00,
2015-08-02 02:12:00,72.0,49.0,-100.00,SE,128,9.0,14.0,45,-99.99,,,-99.99,,2015-08-02 09:12:00,
2015-08-02 02:23:00,72.0,49.0,-100.00,SE,128,9.0,14.0,45,-99.99,,,-99.99,,2015-08-02 09:23:00,
2015-08-02 02:33:00,72.0,49.0,-100.00,SE,131,13.0,17.0,45,-99.99,,,-99.99,,2015-08-02 09:33:00,
2015-08-02 02:43:00,72.0,49.0,-100.00,SSE,160,11.0,16.0,45,-99.99,,,-99.99,,2015-08-02 09:43:00,
2015-08-02 02:53:00,72.0,49.0,-100.00,SSE,160,11.0,16.0,45,-99.99,,,-99.99,,2015-08-02 09:53:00,
2015-08-02 03:03:00,71.0,49.0,-100.00,ESE,114,10.0,15.0,45,-99.99,,,-99.99,,2015-08-02 10:03:00,
2015-08-02 03:12:00,71.0,49.0,-100.00,ENE,73,8.0,11.0,46,-99.99,,,-99.99,,2015-08-02 10:12:00,
2015-08-02 03:33:00,70.0,49.0,-100.00,NE,52,7.0,10.0,47,-99.99,,,-99.99,,2015-08-02 10:33:00,
2015-08-02 03:43:00,70.0,49.0,-100.00,NE,52,7.0,10.0,47,-99.99,,,-99.99,,2015-08-02 10:43:00,
2015-08-02 03:53:00,70.0,49.0,-100.00,NE,41,7.0,8.0,47,-99.99,,,-99.99,,2015-08-02 10:53:00,
2015-08-02 04:03:00,70.0,49.0,-100.00,NE,35,5.0,6.0,47,-99.99,,,-99.99,,2015-08-02 11:03:00,
2015-08-02 04:13:00,70.0,49.0,-100.00,NE,35,5.0,6.0,47,-99.99,,,-99.99,,2015-08-02 11:13:00,
2015-08-02 04:23:00,70.0,49.0,-100.00,NE,35,5.0,6.0,47,-99.99,,,-99.99,,2015-08-02 11:23:00,
2015-08-02 04:33:00,69.0,49.0,-100.00,North,8,3.0,5.0,49,-99.99,,,-99.99,,2015-08-02 11:33:00,
2015-08-02 04:44:00,69.0,49.0,-100.00,North,8,3.0,5.0,49,-99.99,,,-99.99,,2015-08-02 11:44:00,
2015-08-02 04:54:00,69.0,49.0,-100.00,NNE,23,3.0,4.0,48,-99.99,,,-99.99,,2015-08-02 11:54:00,
2015-08-02 05:03:00,72.0,49.0,-100.00,SE,130,10.0,15.0,44,-99.99,,,-99.99,,2015-08-02 12:03:00,
2015-08-02 05:13:00,72.0,48.0,-100.00,SE,136,11.0,15.0,43,-99.99,,,-99.99,,2015-08-02 12:13:00,
2015-08-02 05:23:00,72.0,48.0,-100.00,SE,136,11.0,15.0,43,-99.99,,,-99.99,,2015-08-02 12:23:00,
2015-08-02 05:33:00,72.0,48.0,-100.00,SE,136,11.0,15.0,43,-99.99,,,-99.99,,2015-08-02 12:33:00,
2015-08-02 05:43:00,72.0,48.0,-100.00,SE,124,10.0,12.0,43,-99.99,,,-99.99,,2015-08-02 12:43:00,
2015-08-02 05:54:00,72.0,48.0,-100.00,SE,124,10.0,12.0,42,-99.99,,,-99.99,,2015-08-02 12:54:00,
2015-08-02 06:03:00,71.0,49.0,-100.00,SE,127,7.0,9.0,46,-99.99,,,-99.99,,2015-08-02 13:03:00,
2015-08-02 06:13:00,72.0,48.0,-100.00,SE,138,5.0,7.0,43,-99.99,,,-99.99,,2015-08-02 13:13:00,
2015-08-02 06:23:00,72.0,48.0,-100.00,SE,138,5.0,7.0,43,-99.99,,,-99.99,,2015-08-02 13:23:00,
2015-08-02 06:33:00,71.0,49.0,-100.00,ESE,110,4.0,6.0,44,-99.99,,,-99.99,,2015-08-02 13:33:00,
2015-08-02 06:43:00,71.0,49.0,-100.00,ESE,110,4.0,6.0,44,-99.99,,,-99.99,,2015-08-02 13:43:00,
2015-08-02 06:53:00,71.0,49.0,-100.00,ESE,110,4.0,6.0,44,-99.99,,,-99.99,,2015-08-02 13:53:00,
2015-08-02 07:12:00,69.0,49.0,-100.00,NE,55,8.0,10.0,49,-99.99,,,-99.99,,2015-08-02 14:12:00,
2015-08-02 07:33:00,69.0,49.0,-100.00,ENE,66,8.0,10.0,49,-99.99,,,-99.99,,2015-08-02 14:33:00,
2015-08-02 07:43:00,69.0,49.0,-100.00,ENE,66,8.0,10.0,49,-99.99,,,-99.99,,2015-08-02 14:43:00,
2015-08-02 07:53:00,69.0,49.0,-100.00,ENE,76,6.0,11.0,49,-99.99,,,-99.99,,2015-08-02 14:53:00,
2015-08-02 08:03:00,73.0,48.0,-100.00,East,96,7.0,11.0,41,-99.99,,,-99.99,,2015-08-02 15:03:00,
2015-08-02 08:12:00,73.0,49.0,-100.00,East,96,7.0,11.0,42,-99.99,,,-99.99,,2015-08-02 15:12:00,
2015-08-02 08:22:00,73.0,49.0,-100.00,East,88,10.0,14.0,42,-99.99,,,-99.99,,2015-08-02 15:22:00,
2015-08-02 08:33:00,74.0,48.0,-100.00,ESE,117,9.0,13.0,39,-99.99,,,-99.99,,2015-08-02 15:33:00,
2015-08-02 08:43:00,74.0,47.0,-100.00,ESE,117,9.0,13.0,39,-99.99,,,-99.99,,2015-08-02 15:43:00,
2015-08-02 08:53:00,74.0,47.0,-100.00,ESE,117,9.0,13.0,39,-99.99,,,-99.99,,2015-08-02 15:53:00,
2015-08-02 09:03:00,74.0,48.0,-100.00,SSE,152,8.0,10.0,40,-99.99,,,-99.99,,2015-08-02 16:03:00,
2015-08-02 09:13:00,74.0,48.0,-100.00,SSE,152,8.0,10.0,40,-99.99,,,-99.99,,2015-08-02 16:13:00,
2015-08-02 09:23:00,74.0,48.0,-100.00,SSE,152,8.0,10.0,40,-99.99,,,-99.99,,2015-08-02 16:23:00,
2015-08-02 09:35:00,74.0,48.0,-100.00,SE,126,5.0,10.0,39,-99.99,,,-99.99,,2015-08-02 16:35:00,
2015-08-02 09:46:00,74.0,48.0,-100.00,East,93,5.0,7.0,39,-99.99,,,-99.99,,2015-08-02 16:46:00,
2015-08-02 09:54:00,74.0,48.0,-100.00,East,93,5.0,7.0,39,-99.99,,,-99.99,,2015-08-02 16:54:00,
2015-08-02 10:03:00,73.0,48.0,-100.00,ENE,78,4.0,5.0,41,-99.99,,,-99.99,,2015-08-02 17:03:00,
2015-08-02 10:13:00,74.0,48.0,-100.00,North,-9999,0.0,2.0,40,-99.99,,,-99.99,,2015-08-02 17:13:00,
2015-08-02 10:23:00,74.0,48.0,-100.00,North,-9999,0.0,2.0,40,-99.99,,,-99.99,,2015-08-02 17:23:00,
2015-08-02 10:33:00,75.0,48.0,-100.00,SW,232,3.0,5.0,38,-99.99,,,-99.99,,2015-08-02 17:33:00,
2015-08-02 10:44:00,75.0,48.0,-100.00,SW,223,10.0,11.0,37,-99.99,,,-99.99,,2015-08-02 17:44:00,